createdAt,value
2022-11-13T00:00:41.363Z,12.93
2022-11-13T00:03:29.233Z,12.13
2022-11-13T00:06:15.141Z,12.03
2022-11-13T00:09:00.102Z,12.33
2022-11-13T00:11:45.069Z,11.97
2022-11-13T00:14:30.086Z,11.43
2022-11-13T00:17:15.374Z,12.53
2022-11-13T00:20:00.960Z,13.47
2022-11-13T00:22:46.563Z,14.03
2022-11-13T00:25:31.846Z,13.60
2022-11-13T00:28:16.851Z,12.80
2022-11-13T00:31:02.307Z,13.50
2022-11-13T00:36:53.045Z,14.80
2022-11-13T00:39:38.154Z,14.03
2022-11-13T00:42:23.354Z,14.33
2022-11-13T00:45:09.199Z,13.90
2022-11-13T00:47:54.230Z,14.20
2022-11-13T00:50:39.093Z,13.70
2022-11-13T00:53:24.227Z,13.70
2022-11-13T00:56:09.703Z,14.87
2022-11-13T00:58:54.947Z,13.53
2022-11-13T01:01:40.343Z,14.20
2022-11-13T01:04:25.574Z,14.07
2022-11-13T01:07:11.484Z,14.10
2022-11-13T01:09:56.699Z,14.30
2022-11-13T01:12:41.961Z,14.03
2022-11-13T01:15:27.207Z,14.23
2022-11-13T01:18:12.149Z,13.40
2022-11-13T01:21:04.333Z,14.27
2022-11-13T01:23:49.570Z,14.33
2022-11-13T01:26:34.858Z,13.73
2022-11-13T01:29:20.014Z,14.40
2022-11-13T01:32:05.479Z,13.77
2022-11-13T01:34:50.611Z,14.30
2022-11-13T01:37:35.654Z,14.20
2022-11-13T01:40:20.869Z,14.17
2022-11-13T01:43:18.711Z,14.40
2022-11-13T01:46:16.012Z,14.73
2022-11-13T01:49:15.654Z,15.00
2022-11-13T01:52:06.861Z,14.83
2022-11-13T01:55:08.029Z,15.13
2022-11-13T01:57:54.058Z,14.67
2022-11-13T02:00:39.249Z,13.43
2022-11-13T02:03:24.487Z,15.17
2022-11-13T02:06:09.469Z,15.03
2022-11-13T02:08:54.998Z,15.23
2022-11-13T02:11:40.408Z,14.47
2022-11-13T02:14:26.659Z,14.40
2022-11-13T02:17:15.358Z,14.77
2022-11-13T02:20:03.337Z,13.93
2022-11-13T02:22:52.131Z,13.73
2022-11-13T02:25:38.071Z,14.43
2022-11-13T02:28:23.234Z,13.33
2022-11-13T02:31:11.570Z,15.30
2022-11-13T02:33:56.807Z,13.83
2022-11-13T02:36:42.022Z,13.80
2022-11-13T02:39:27.896Z,13.60
2022-11-13T02:42:12.933Z,13.43
2022-11-13T02:44:57.927Z,14.03
2022-11-13T02:47:43.423Z,13.30
2022-11-13T02:50:28.695Z,14.63
2022-11-13T02:53:13.799Z,14.07
2022-11-13T02:55:58.936Z,13.00
2022-11-13T02:58:45.125Z,13.10
2022-11-13T03:01:30.091Z,13.93
2022-11-13T03:04:15.036Z,13.60
2022-11-13T03:07:00.391Z,12.27
2022-11-13T03:09:46.503Z,13.13
2022-11-13T03:12:32.592Z,13.10
2022-11-13T03:15:18.054Z,12.33
2022-11-13T03:18:07.075Z,13.03
2022-11-13T03:20:54.035Z,14.07
2022-11-13T03:23:40.472Z,13.87
2022-11-13T03:26:28.309Z,13.70
2022-11-13T03:29:15.368Z,13.83
2022-11-13T03:32:00.331Z,13.97
2022-11-13T03:34:45.437Z,15.50
2022-11-13T03:37:30.459Z,14.00
2022-11-13T03:40:15.548Z,14.40
2022-11-13T03:43:00.510Z,15.03
2022-11-13T03:45:46.687Z,14.20
2022-11-13T03:48:32.339Z,13.70
2022-11-13T03:51:17.500Z,13.30
2022-11-13T03:54:02.718Z,15.00
2022-11-13T03:56:47.649Z,13.63
2022-11-13T03:59:32.930Z,14.10
2022-11-13T04:02:17.995Z,13.20
2022-11-13T04:05:03.231Z,12.97
2022-11-13T04:07:48.788Z,13.67
2022-11-13T04:10:33.932Z,13.83
2022-11-13T04:13:18.873Z,13.57
2022-11-13T04:16:04.539Z,12.60
2022-11-13T04:18:49.635Z,12.70
2022-11-13T04:21:34.781Z,13.17
2022-11-13T04:24:20.055Z,13.07
2022-11-13T04:27:05.304Z,11.90
2022-11-13T04:29:50.461Z,12.70
2022-11-13T04:32:35.599Z,13.20
2022-11-13T04:35:20.507Z,12.10
2022-11-13T04:38:05.650Z,11.63
2022-11-13T04:41:11.241Z,12.33
2022-11-13T04:43:56.554Z,11.50
2022-11-13T04:46:41.500Z,11.40
2022-11-13T04:49:27.531Z,11.93
2022-11-13T04:52:12.953Z,11.20
2022-11-13T04:54:58.697Z,11.17
2022-11-13T04:57:43.767Z,10.90
2022-11-13T05:00:28.754Z,11.80
2022-11-13T05:03:13.709Z,12.37
2022-11-13T05:06:05.967Z,11.77
2022-11-13T05:08:50.915Z,11.33
2022-11-13T05:11:36.141Z,12.10
2022-11-13T05:14:21.177Z,11.90
2022-11-13T05:17:07.082Z,12.50
2022-11-13T05:19:52.181Z,12.03
2022-11-13T05:22:38.112Z,11.23
2022-11-13T05:25:23.511Z,11.80
2022-11-13T05:28:08.551Z,12.07
2022-11-13T05:30:53.591Z,12.70
2022-11-13T05:33:39.354Z,11.40
2022-11-13T05:36:24.400Z,12.03
2022-11-13T05:39:09.603Z,11.30
2022-11-13T05:41:54.992Z,12.47
2022-11-13T05:44:40.329Z,11.87
2022-11-13T05:47:25.307Z,12.13
2022-11-13T05:50:10.546Z,11.30
2022-11-13T05:52:55.560Z,11.37
2022-11-13T05:55:40.605Z,12.10
2022-11-13T05:58:25.668Z,11.13
2022-11-13T06:01:13.796Z,11.03
2022-11-13T06:03:59.671Z,12.20
2022-11-13T06:06:45.029Z,12.07
2022-11-13T06:09:30.346Z,13.63
2022-11-13T06:12:15.520Z,12.30
2022-11-13T06:15:00.930Z,12.17
2022-11-13T06:17:46.716Z,12.67
2022-11-13T06:20:33.747Z,11.97
2022-11-13T06:23:19.081Z,12.10
2022-11-13T06:26:08.658Z,12.33
2022-11-13T06:28:53.949Z,12.33
2022-11-13T06:31:39.425Z,12.70
2022-11-13T06:34:24.601Z,12.93
2022-11-13T06:37:09.584Z,12.47
2022-11-13T06:39:57.302Z,12.90
2022-11-13T06:42:42.496Z,12.13
2022-11-13T06:45:27.900Z,12.50
2022-11-13T06:48:12.863Z,11.60
2022-11-13T06:51:00.913Z,12.47
2022-11-13T06:53:46.754Z,11.80
2022-11-13T06:56:31.591Z,11.90
2022-11-13T06:59:16.828Z,11.53
2022-11-13T07:02:01.895Z,12.33
2022-11-13T07:04:46.998Z,12.43
2022-11-13T07:07:32.176Z,11.87
2022-11-13T07:10:17.375Z,11.90
2022-11-13T07:13:02.588Z,11.40
2022-11-13T07:15:47.903Z,12.33
2022-11-13T07:18:33.355Z,13.00
2022-11-13T07:21:18.903Z,11.57
2022-11-13T07:24:04.398Z,12.63
2022-11-13T07:26:49.373Z,12.50
2022-11-13T07:29:35.522Z,12.30
2022-11-13T07:32:20.547Z,12.23
2022-11-13T07:35:05.919Z,12.33
2022-11-13T07:37:54.884Z,11.47
2022-11-13T07:40:40.457Z,12.03
2022-11-13T07:43:25.706Z,12.20
2022-11-13T07:46:11.208Z,12.13
2022-11-13T07:48:56.461Z,12.40
2022-11-13T07:51:41.806Z,12.87
2022-11-13T07:54:27.099Z,12.27
2022-11-13T07:57:13.100Z,12.27
2022-11-13T07:59:58.468Z,12.30
2022-11-13T08:02:43.735Z,12.77
2022-11-13T08:05:30.108Z,14.17
2022-11-13T08:08:15.354Z,13.90
2022-11-13T08:11:03.631Z,13.57
2022-11-13T08:13:48.858Z,12.40
2022-11-13T08:16:33.876Z,12.00
2022-11-13T08:19:18.850Z,11.63
2022-11-13T08:22:04.630Z,12.23
2022-11-13T08:24:49.807Z,10.47
2022-11-13T08:27:34.844Z,9.97
2022-11-13T08:30:20.680Z,9.33
2022-11-13T08:33:05.605Z,9.30
2022-11-13T08:35:57.773Z,9.70
2022-11-13T08:38:42.612Z,9.00
2022-11-13T08:41:27.825Z,8.87
2022-11-13T08:44:14.296Z,7.90
2022-11-13T08:46:59.454Z,8.60
2022-11-13T08:49:44.847Z,7.70
2022-11-13T08:52:30.267Z,8.00
2022-11-13T08:55:15.067Z,6.33
2022-11-13T08:58:01.219Z,7.30
2022-11-13T09:00:46.932Z,7.00
2022-11-13T09:03:32.369Z,7.00
2022-11-13T09:06:17.825Z,6.38
2022-11-13T09:09:04.177Z,6.65
2022-11-13T09:11:49.650Z,5.97
2022-11-13T09:14:35.471Z,6.25
2022-11-13T09:17:20.676Z,6.40
2022-11-13T09:20:13.572Z,5.93
2022-11-13T09:23:00.246Z,6.00
2022-11-13T09:25:45.253Z,5.80
2022-11-13T09:28:30.980Z,6.38
2022-11-13T09:31:16.711Z,6.57
2022-11-13T09:34:01.949Z,6.32
2022-11-13T09:36:47.174Z,6.38
2022-11-13T09:39:32.724Z,6.30
2022-11-13T09:42:20.738Z,6.18
2022-11-13T09:45:07.700Z,5.63
2022-11-13T09:47:54.502Z,6.10
2022-11-13T09:50:39.891Z,6.00
2022-11-13T09:53:25.691Z,5.82
2022-11-13T09:56:18.643Z,6.20
2022-11-13T09:59:16.859Z,6.18
2022-11-13T10:02:08.145Z,6.35
2022-11-13T10:04:58.286Z,5.97
2022-11-13T10:07:52.742Z,6.30
2022-11-13T10:10:55.197Z,6.72
2022-11-13T10:13:40.792Z,6.20
2022-11-13T10:16:32.478Z,5.82
2022-11-13T10:19:20.612Z,6.72
2022-11-13T10:22:35.009Z,5.90
2022-11-13T10:25:20.169Z,5.70
2022-11-13T10:28:43.146Z,5.88
2022-11-13T10:31:16.493Z,6.20
2022-11-13T10:34:02.005Z,5.82
2022-11-13T10:37:05.160Z,5.93
2022-11-13T10:39:50.472Z,5.97
2022-11-13T10:42:38.420Z,5.82
2022-11-13T10:45:23.380Z,6.00
2022-11-13T10:48:21.816Z,5.50
2022-11-13T10:51:25.665Z,6.15
2022-11-13T10:54:26.397Z,5.60
2022-11-13T10:57:21.160Z,5.80
2022-11-13T11:00:23.660Z,6.05
2022-11-13T11:03:16.353Z,6.07
2022-11-13T11:06:03.306Z,6.75
2022-11-13T11:08:48.971Z,6.55
2022-11-13T11:11:52.643Z,5.85
2022-11-13T11:14:39.846Z,6.27
2022-11-13T11:17:30.395Z,6.03
2022-11-13T11:20:33.964Z,6.37
2022-11-13T11:23:37.233Z,6.73
2022-11-13T11:26:31.419Z,6.30
2022-11-13T11:29:22.061Z,6.60
2022-11-13T11:32:12.389Z,6.60
2022-11-13T11:35:04.803Z,6.97
2022-11-13T11:38:03.118Z,7.10
2022-11-13T11:40:51.677Z,6.60
2022-11-13T11:43:42.788Z,8.18
2022-11-13T11:46:29.593Z,6.03
2022-11-13T11:49:14.473Z,7.03
2022-11-13T11:52:18.160Z,7.50
2022-11-13T11:55:03.257Z,6.43
2022-11-13T11:57:58.801Z,7.22
2022-11-13T12:00:49.517Z,6.68
2022-11-13T12:03:49.541Z,7.10
2022-11-13T12:06:46.191Z,7.23
2022-11-13T12:09:33.389Z,7.30
2022-11-13T12:13:43.255Z,6.85
2022-11-13T12:17:15.980Z,6.97
2022-11-13T12:20:01.560Z,6.63
2022-11-13T12:22:49.574Z,7.43
2022-11-13T12:25:37.547Z,6.47
2022-11-13T12:28:48.889Z,6.28
2022-11-13T12:31:40.444Z,6.88
2022-11-13T12:34:28.724Z,5.78
2022-11-13T12:37:16.178Z,6.57
2022-11-13T12:40:08.310Z,6.35
2022-11-13T12:43:19.740Z,6.47
2022-11-13T12:46:11.672Z,6.50
2022-11-13T12:48:57.115Z,6.63
2022-11-13T12:51:53.356Z,5.70
2022-11-13T12:54:38.953Z,6.85
2022-11-13T12:57:30.129Z,6.88
2022-11-13T13:00:26.604Z,6.97
2022-11-13T13:03:11.809Z,6.03
2022-11-13T13:06:12.352Z,6.55
2022-11-13T13:09:06.999Z,9.47
2022-11-13T13:11:52.428Z,8.90
2022-11-13T13:14:37.608Z,7.07
2022-11-13T13:17:23.669Z,7.67
2022-11-13T13:20:15.047Z,6.93
2022-11-13T13:23:02.182Z,6.60
2022-11-13T13:26:01.749Z,6.87
2022-11-13T13:28:56.942Z,7.30
2022-11-13T13:32:01.569Z,6.63
2022-11-13T13:34:54.860Z,7.27
2022-11-13T13:37:54.132Z,7.60
2022-11-13T13:40:52.198Z,7.20
2022-11-13T13:43:56.137Z,7.20
2022-11-13T13:46:41.436Z,8.20
2022-11-13T13:49:28.214Z,7.37
2022-11-13T13:52:16.456Z,7.83
2022-11-13T13:55:03.133Z,7.77
2022-11-13T13:57:48.527Z,7.40
2022-11-13T14:00:34.003Z,7.70
2022-11-13T14:03:20.719Z,6.83
2022-11-13T14:06:24.608Z,7.07
2022-11-13T14:09:10.967Z,7.03
2022-11-13T14:11:56.874Z,6.97
2022-11-13T14:14:42.219Z,6.87
2022-11-13T14:17:29.125Z,7.43
2022-11-13T14:20:14.309Z,7.73
2022-11-13T14:22:59.728Z,8.00
2022-11-13T14:25:45.486Z,7.30
2022-11-13T14:28:35.337Z,7.30
2022-11-13T14:31:25.444Z,6.97
2022-11-13T14:34:12.171Z,6.43
2022-11-13T14:37:05.603Z,7.07
2022-11-13T14:39:51.928Z,6.50
2022-11-13T14:42:38.461Z,7.00
2022-11-13T14:45:24.848Z,7.53
2022-11-13T14:48:23.667Z,7.93
2022-11-13T14:51:22.398Z,7.33
2022-11-13T14:54:09.080Z,6.70
2022-11-13T14:56:54.572Z,7.13
2022-11-13T14:59:42.448Z,8.87
2022-11-13T15:02:27.922Z,7.83
2022-11-13T15:05:13.070Z,9.53
2022-11-13T15:07:58.189Z,8.60
2022-11-13T15:10:43.437Z,7.27
2022-11-13T15:13:28.984Z,7.43
2022-11-13T15:16:16.779Z,6.90
2022-11-13T15:19:03.186Z,7.70
2022-11-13T15:22:20.211Z,7.80
2022-11-13T15:24:53.621Z,7.80
2022-11-13T15:27:42.885Z,7.73
2022-11-13T15:30:28.455Z,7.60
2022-11-13T15:33:14.745Z,7.97
2022-11-13T15:35:59.767Z,8.27
2022-11-13T15:38:44.733Z,8.70
2022-11-13T15:41:30.214Z,7.83
2022-11-13T15:44:15.586Z,8.30
2022-11-13T15:47:00.678Z,8.00
2022-11-13T15:49:56.793Z,8.23
2022-11-13T15:52:52.049Z,7.07
2022-11-13T15:55:38.201Z,7.57
2022-11-13T15:58:23.390Z,7.43
2022-11-13T16:01:09.421Z,7.57
2022-11-13T16:03:56.333Z,8.00
2022-11-13T16:06:41.568Z,8.03
2022-11-13T16:09:27.117Z,8.00
2022-11-13T16:12:12.487Z,8.43
2022-11-13T16:14:57.849Z,8.10
2022-11-13T16:17:47.557Z,9.23
2022-11-13T16:20:32.958Z,8.27
2022-11-13T16:23:18.129Z,9.23
2022-11-13T16:26:06.226Z,8.43
2022-11-13T16:29:12.611Z,8.97
2022-11-13T16:31:58.226Z,10.00
2022-11-13T16:34:44.128Z,9.50
2022-11-13T16:37:29.284Z,9.70
2022-11-13T16:40:25.622Z,10.00
2022-11-13T16:43:10.971Z,9.30
2022-11-13T16:45:56.936Z,9.80
2022-11-13T16:48:41.946Z,10.23
2022-11-13T16:51:27.307Z,10.57
2022-11-13T16:54:12.913Z,9.43
2022-11-13T16:56:58.051Z,10.70
2022-11-13T16:59:43.490Z,11.03
2022-11-13T17:02:28.547Z,10.70
2022-11-13T17:05:14.138Z,10.53
2022-11-13T17:08:00.338Z,11.37
2022-11-13T17:10:45.595Z,11.10
2022-11-13T17:13:31.518Z,10.67
2022-11-13T17:16:16.957Z,10.17
2022-11-13T17:19:02.310Z,10.80
2022-11-13T17:21:47.718Z,10.73
2022-11-13T17:24:32.863Z,10.37
2022-11-13T17:27:18.142Z,11.17
2022-11-13T17:30:03.940Z,10.50
2022-11-13T17:32:48.945Z,11.33
2022-11-13T17:35:34.173Z,10.60
2022-11-13T17:38:19.551Z,10.77
2022-11-13T17:41:05.928Z,10.60
2022-11-13T17:43:50.885Z,10.53
2022-11-13T17:46:36.323Z,11.10
2022-11-13T17:49:21.399Z,10.90
2022-11-13T17:52:06.518Z,10.87
2022-11-13T17:54:52.036Z,11.03
2022-11-13T17:57:36.977Z,11.83
2022-11-13T18:00:22.456Z,11.10
2022-11-13T18:03:08.107Z,11.07
2022-11-13T18:05:53.139Z,10.70
2022-11-13T18:08:39.517Z,11.50
2022-11-13T18:11:25.936Z,11.00
2022-11-13T18:14:11.388Z,11.00
2022-11-13T18:16:56.410Z,10.60
2022-11-13T18:19:41.762Z,11.40
2022-11-13T18:22:27.025Z,10.53
2022-11-13T18:25:13.405Z,9.93
2022-11-13T18:27:58.597Z,11.30
2022-11-13T18:30:44.906Z,10.90
2022-11-13T18:33:30.493Z,10.23
2022-11-13T18:36:16.645Z,10.40
2022-11-13T18:39:03.263Z,10.20
2022-11-13T18:41:48.621Z,11.63
2022-11-13T18:44:33.679Z,10.43
2022-11-13T18:47:18.958Z,10.03
2022-11-13T18:50:04.551Z,10.17
2022-11-13T18:52:49.825Z,9.70
2022-11-13T18:55:34.893Z,11.30
2022-11-13T18:58:20.020Z,11.53
2022-11-13T19:01:09.574Z,10.67
2022-11-13T19:04:20.974Z,9.90
2022-11-13T19:07:00.892Z,11.20
2022-11-13T19:09:50.395Z,10.87
2022-11-13T19:12:35.735Z,10.90
2022-11-13T19:15:23.919Z,10.53
2022-11-13T19:18:08.804Z,10.77
2022-11-13T19:20:54.012Z,11.80
2022-11-13T19:23:39.479Z,11.63
2022-11-13T19:26:24.932Z,13.57
2022-11-13T19:29:10.483Z,13.47
2022-11-13T19:31:57.028Z,13.00
2022-11-13T19:34:46.268Z,13.30
2022-11-13T19:37:32.310Z,14.00
2022-11-13T19:40:17.631Z,13.07
2022-11-13T19:43:02.963Z,14.37
2022-11-13T19:45:48.035Z,18.97
2022-11-13T19:48:33.490Z,19.00
2022-11-13T19:51:20.343Z,20.07
2022-11-13T19:54:05.558Z,20.00
2022-11-13T19:56:50.874Z,20.77
2022-11-13T19:59:36.130Z,20.00
2022-11-13T20:02:21.107Z,21.63
2022-11-13T20:05:07.076Z,22.70
2022-11-13T20:07:52.731Z,22.50
2022-11-13T20:10:41.312Z,22.70
2022-11-13T20:13:26.359Z,23.17
2022-11-13T20:16:12.794Z,24.37
2022-11-13T20:18:58.131Z,23.00
2022-11-13T20:21:43.735Z,20.87
2022-11-13T20:24:28.844Z,21.07
2022-11-13T20:27:14.148Z,20.57
2022-11-13T20:29:59.094Z,19.33
2022-11-13T20:32:44.530Z,17.97
2022-11-13T20:35:29.605Z,18.27
2022-11-13T20:38:14.535Z,17.83
2022-11-13T20:41:04.290Z,17.70
2022-11-13T20:43:49.811Z,16.07
2022-11-13T20:46:34.895Z,17.77
2022-11-13T20:49:19.939Z,17.50
2022-11-13T20:52:07.045Z,17.10
2022-11-13T20:54:52.057Z,16.30
2022-11-13T20:57:40.941Z,17.37
2022-11-13T21:00:26.499Z,15.03
2022-11-13T21:03:11.962Z,16.20
2022-11-13T21:05:57.218Z,17.40
2022-11-13T21:08:42.314Z,17.97
2022-11-13T21:11:29.384Z,16.70
2022-11-13T21:14:14.773Z,16.43
2022-11-13T21:16:59.849Z,14.63
2022-11-13T21:19:44.842Z,15.90
2022-11-13T21:22:30.878Z,17.43
2022-11-13T21:25:17.683Z,16.10
2022-11-13T21:28:02.812Z,16.33
2022-11-13T21:30:48.228Z,15.53
2022-11-13T21:33:37.391Z,15.90
2022-11-13T21:36:23.912Z,15.63
2022-11-13T21:39:09.278Z,15.07
2022-11-13T21:41:54.338Z,15.93
2022-11-13T21:44:39.587Z,17.23
2022-11-13T21:47:25.005Z,14.23
2022-11-13T21:50:10.121Z,14.50
2022-11-13T21:52:55.354Z,16.40
2022-11-13T21:55:48.159Z,17.23
2022-11-13T21:58:34.584Z,16.07
2022-11-13T22:01:19.693Z,15.97
2022-11-13T22:04:05.133Z,16.70
2022-11-13T22:06:50.512Z,17.07
2022-11-13T22:09:35.664Z,15.80
2022-11-13T22:12:21.971Z,15.80
2022-11-13T22:15:07.377Z,16.43
2022-11-13T22:17:52.365Z,17.17
2022-11-13T22:20:37.505Z,15.30
2022-11-13T22:23:22.905Z,16.27
2022-11-13T22:26:12.621Z,17.13
2022-11-13T22:28:59.426Z,15.40
2022-11-13T22:31:45.050Z,15.43
2022-11-13T22:34:30.314Z,15.70
2022-11-13T22:37:15.590Z,15.17
2022-11-13T22:40:00.541Z,13.93
2022-11-13T22:42:45.557Z,15.53
2022-11-13T22:45:32.851Z,14.40
2022-11-13T22:48:18.314Z,12.83
2022-11-13T22:51:08.249Z,14.10
2022-11-13T22:53:55.180Z,14.47
2022-11-13T22:56:40.802Z,13.53
2022-11-13T22:59:25.843Z,14.07
2022-11-13T23:02:10.810Z,13.17
2022-11-13T23:04:55.703Z,13.30
2022-11-13T23:07:41.137Z,12.80
2022-11-13T23:10:26.388Z,14.80
2022-11-13T23:13:11.365Z,12.43
2022-11-13T23:15:56.525Z,13.03
2022-11-13T23:18:41.933Z,12.60
2022-11-13T23:21:28.229Z,12.50
2022-11-13T23:24:13.467Z,13.20
2022-11-13T23:26:58.694Z,13.40
2022-11-13T23:29:49.748Z,13.40
2022-11-13T23:32:35.693Z,14.57
2022-11-13T23:35:20.775Z,12.97
2022-11-13T23:38:05.844Z,12.67
2022-11-13T23:40:54.599Z,12.23
2022-11-13T23:44:08.359Z,13.13
2022-11-13T23:46:44.661Z,12.73
2022-11-13T23:49:29.919Z,13.00
2022-11-13T23:52:14.933Z,14.07
2022-11-13T23:55:00.028Z,14.37
2022-11-13T23:57:44.912Z,16.10
